sensor_id;sensor_type;location;lat;lon;timestamp;pressure;altitude;pressure_sealevel;temperature
9119;BMP180;4594;50.994;7.126;2022-09-17T00:01:16;100321.00;;;16.90
9119;BMP180;4594;50.994;7.126;2022-09-17T00:03:43;100312.00;;;16.90
9119;BMP180;4594;50.994;7.126;2022-09-17T00:06:11;100316.00;;;17.00
9119;BMP180;4594;50.994;7.126;2022-09-17T00:08:39;100315.00;;;17.00
9119;BMP180;4594;50.994;7.126;2022-09-17T00:11:15;100331.00;;;17.00
9119;BMP180;4594;50.994;7.126;2022-09-17T00:13:43;100317.00;;;17.00
9119;BMP180;4594;50.994;7.126;2022-09-17T00:16:10;100317.00;;;17.00
9119;BMP180;4594;50.994;7.126;2022-09-17T00:18:36;100319.00;;;17.00
9119;BMP180;4594;50.994;7.126;2022-09-17T00:21:14;100320.00;;;17.00
9119;BMP180;4594;50.994;7.126;2022-09-17T00:23:41;100317.00;;;17.00
9119;BMP180;4594;50.994;7.126;2022-09-17T00:26:06;100304.00;;;17.00
9119;BMP180;4594;50.994;7.126;2022-09-17T00:28:32;100307.00;;;17.00
9119;BMP180;4594;50.994;7.126;2022-09-17T00:30:58;100308.00;;;17.00
9119;BMP180;4594;50.994;7.126;2022-09-17T00:33:23;100304.00;;;17.10
9119;BMP180;4594;50.994;7.126;2022-09-17T00:36:01;100313.00;;;17.10
9119;BMP180;4594;50.994;7.126;2022-09-17T00:38:27;100306.00;;;17.00
9119;BMP180;4594;50.994;7.126;2022-09-17T00:40:54;100290.00;;;17.10
9119;BMP180;4594;50.994;7.126;2022-09-17T00:43:46;100311.00;;;17.10
9119;BMP180;4594;50.994;7.126;2022-09-17T00:46:40;100309.00;;;17.10
9119;BMP180;4594;50.994;7.126;2022-09-17T00:49:18;100303.00;;;17.00
9119;BMP180;4594;50.994;7.126;2022-09-17T00:51:52;100309.00;;;17.10
9119;BMP180;4594;50.994;7.126;2022-09-17T00:54:22;100310.00;;;17.10
9119;BMP180;4594;50.994;7.126;2022-09-17T00:56:50;100315.00;;;17.10
9119;BMP180;4594;50.994;7.126;2022-09-17T00:59:18;100318.00;;;17.10
9119;BMP180;4594;50.994;7.126;2022-09-17T01:01:45;100319.00;;;17.10
9119;BMP180;4594;50.994;7.126;2022-09-17T01:04:20;100305.00;;;17.10
9119;BMP180;4594;50.994;7.126;2022-09-17T01:07:08;100318.00;;;17.10
9119;BMP180;4594;50.994;7.126;2022-09-17T01:10:18;100322.00;;;17.10
9119;BMP180;4594;50.994;7.126;2022-09-17T01:28:05;100333.00;;;16.90
9119;BMP180;4594;50.994;7.126;2022-09-17T01:31:00;100334.00;;;16.90
9119;BMP180;4594;50.994;7.126;2022-09-17T01:33:41;100338.00;;;16.90
9119;BMP180;4594;50.994;7.126;2022-09-17T01:47:26;100351.00;;;16.60
9119;BMP180;4594;50.994;7.126;2022-09-17T01:50:01;100356.00;;;16.60
9119;BMP180;4594;50.994;7.126;2022-09-17T01:52:31;100351.00;;;16.60
9119;BMP180;4594;50.994;7.126;2022-09-17T01:55:03;100332.00;;;16.60
9119;BMP180;4594;50.994;7.126;2022-09-17T01:58:16;100344.00;;;16.50
9119;BMP180;4594;50.994;7.126;2022-09-17T02:00:54;100343.00;;;16.50
9119;BMP180;4594;50.994;7.126;2022-09-17T02:03:34;100337.00;;;16.50
9119;BMP180;4594;50.994;7.126;2022-09-17T02:06:29;100353.00;;;16.40
9119;BMP180;4594;50.994;7.126;2022-09-17T02:09:13;100335.00;;;16.40
9119;BMP180;4594;50.994;7.126;2022-09-17T02:11:47;100340.00;;;16.40
9119;BMP180;4594;50.994;7.126;2022-09-17T02:14:21;100345.00;;;16.40
9119;BMP180;4594;50.994;7.126;2022-09-17T02:16:56;100338.00;;;16.40
9119;BMP180;4594;50.994;7.126;2022-09-17T02:19:29;100349.00;;;16.40
9119;BMP180;4594;50.994;7.126;2022-09-17T02:22:19;100349.00;;;16.40
9119;BMP180;4594;50.994;7.126;2022-09-17T02:27:48;100347.00;;;16.40
9119;BMP180;4594;50.994;7.126;2022-09-17T02:30:16;100346.00;;;16.40
9119;BMP180;4594;50.994;7.126;2022-09-17T02:32:42;100347.00;;;16.50
9119;BMP180;4594;50.994;7.126;2022-09-17T02:35:10;100341.00;;;16.50
9119;BMP180;4594;50.994;7.126;2022-09-17T02:37:39;100346.00;;;16.50
9119;BMP180;4594;50.994;7.126;2022-09-17T02:40:07;100345.00;;;16.50
9119;BMP180;4594;50.994;7.126;2022-09-17T02:45:56;100353.00;;;16.40
9119;BMP180;4594;50.994;7.126;2022-09-17T02:51:50;100338.00;;;16.40
9119;BMP180;4594;50.994;7.126;2022-09-17T02:57:18;100357.00;;;16.40
9119;BMP180;4594;50.994;7.126;2022-09-17T03:00:08;100351.00;;;16.40
9119;BMP180;4594;50.994;7.126;2022-09-17T03:02:59;100342.00;;;16.40
9119;BMP180;4594;50.994;7.126;2022-09-17T03:05:27;100342.00;;;16.40
9119;BMP180;4594;50.994;7.126;2022-09-17T03:07:55;100350.00;;;16.50
9119;BMP180;4594;50.994;7.126;2022-09-17T03:10:22;100343.00;;;16.50
9119;BMP180;4594;50.994;7.126;2022-09-17T03:12:48;100350.00;;;16.50
9119;BMP180;4594;50.994;7.126;2022-09-17T03:15:14;100347.00;;;16.50
9119;BMP180;4594;50.994;7.126;2022-09-17T03:17:39;100344.00;;;16.50
9119;BMP180;4594;50.994;7.126;2022-09-17T03:20:05;100339.00;;;16.50
9119;BMP180;4594;50.994;7.126;2022-09-17T03:22:31;100347.00;;;16.50
9119;BMP180;4594;50.994;7.126;2022-09-17T03:24:57;100343.00;;;16.50
9119;BMP180;4594;50.994;7.126;2022-09-17T03:27:23;100338.00;;;16.50
9119;BMP180;4594;50.994;7.126;2022-09-17T03:29:48;100355.00;;;16.50
9119;BMP180;4594;50.994;7.126;2022-09-17T03:32:14;100352.00;;;16.50
9119;BMP180;4594;50.994;7.126;2022-09-17T03:34:40;100362.00;;;16.50
9119;BMP180;4594;50.994;7.126;2022-09-17T03:37:05;100354.00;;;16.50
9119;BMP180;4594;50.994;7.126;2022-09-17T03:39:31;100352.00;;;16.50
9119;BMP180;4594;50.994;7.126;2022-09-17T03:41:56;100343.00;;;16.50
9119;BMP180;4594;50.994;7.126;2022-09-17T03:44:22;100366.00;;;16.50
9119;BMP180;4594;50.994;7.126;2022-09-17T03:46:49;100356.00;;;16.50
9119;BMP180;4594;50.994;7.126;2022-09-17T03:49:15;100359.00;;;16.50
9119;BMP180;4594;50.994;7.126;2022-09-17T03:51:40;100356.00;;;16.50
9119;BMP180;4594;50.994;7.126;2022-09-17T03:54:06;100354.00;;;16.40
9119;BMP180;4594;50.994;7.126;2022-09-17T03:56:32;100361.00;;;16.40
9119;BMP180;4594;50.994;7.126;2022-09-17T03:58:59;100365.00;;;16.40
9119;BMP180;4594;50.994;7.126;2022-09-17T04:01:26;100371.00;;;16.40
9119;BMP180;4594;50.994;7.126;2022-09-17T04:03:53;100367.00;;;16.40
9119;BMP180;4594;50.994;7.126;2022-09-17T04:06:19;100362.00;;;16.30
9119;BMP180;4594;50.994;7.126;2022-09-17T04:08:45;100351.00;;;16.30
9119;BMP180;4594;50.994;7.126;2022-09-17T04:11:12;100370.00;;;16.30
9119;BMP180;4594;50.994;7.126;2022-09-17T04:13:38;100373.00;;;16.30
9119;BMP180;4594;50.994;7.126;2022-09-17T04:16:04;100374.00;;;16.30
9119;BMP180;4594;50.994;7.126;2022-09-17T04:18:30;100375.00;;;16.30
9119;BMP180;4594;50.994;7.126;2022-09-17T04:20:56;100373.00;;;16.30
9119;BMP180;4594;50.994;7.126;2022-09-17T04:23:22;100369.00;;;16.30
9119;BMP180;4594;50.994;7.126;2022-09-17T04:25:48;100369.00;;;16.30
9119;BMP180;4594;50.994;7.126;2022-09-17T04:28:13;100372.00;;;16.30
9119;BMP180;4594;50.994;7.126;2022-09-17T04:30:40;100380.00;;;16.30
9119;BMP180;4594;50.994;7.126;2022-09-17T04:33:08;100379.00;;;16.30
9119;BMP180;4594;50.994;7.126;2022-09-17T04:35:34;100383.00;;;16.30
9119;BMP180;4594;50.994;7.126;2022-09-17T04:38:00;100386.00;;;16.30
9119;BMP180;4594;50.994;7.126;2022-09-17T04:40:26;100368.00;;;16.20
9119;BMP180;4594;50.994;7.126;2022-09-17T04:42:53;100380.00;;;16.20
9119;BMP180;4594;50.994;7.126;2022-09-17T04:45:20;100387.00;;;16.20
9119;BMP180;4594;50.994;7.126;2022-09-17T04:47:46;100389.00;;;16.20
9119;BMP180;4594;50.994;7.126;2022-09-17T04:50:12;100386.00;;;16.30
9119;BMP180;4594;50.994;7.126;2022-09-17T04:52:42;100387.00;;;16.30
9119;BMP180;4594;50.994;7.126;2022-09-17T04:55:08;100394.00;;;16.30
9119;BMP180;4594;50.994;7.126;2022-09-17T04:57:34;100394.00;;;16.30
9119;BMP180;4594;50.994;7.126;2022-09-17T05:00:00;100392.00;;;16.30
9119;BMP180;4594;50.994;7.126;2022-09-17T05:02:26;100398.00;;;16.30
9119;BMP180;4594;50.994;7.126;2022-09-17T05:04:52;100391.00;;;16.30
9119;BMP180;4594;50.994;7.126;2022-09-17T05:07:18;100385.00;;;16.30
9119;BMP180;4594;50.994;7.126;2022-09-17T05:09:43;100397.00;;;16.30
9119;BMP180;4594;50.994;7.126;2022-09-17T05:12:09;100390.00;;;16.30
9119;BMP180;4594;50.994;7.126;2022-09-17T05:14:34;100397.00;;;16.30
9119;BMP180;4594;50.994;7.126;2022-09-17T05:17:00;100389.00;;;16.30
9119;BMP180;4594;50.994;7.126;2022-09-17T05:19:26;100404.00;;;16.30
9119;BMP180;4594;50.994;7.126;2022-09-17T05:21:51;100400.00;;;16.30
9119;BMP180;4594;50.994;7.126;2022-09-17T05:24:17;100391.00;;;16.30
9119;BMP180;4594;50.994;7.126;2022-09-17T05:26:43;100399.00;;;16.30
9119;BMP180;4594;50.994;7.126;2022-09-17T05:29:08;100407.00;;;16.30
9119;BMP180;4594;50.994;7.126;2022-09-17T05:31:35;100401.00;;;16.30
9119;BMP180;4594;50.994;7.126;2022-09-17T05:34:00;100400.00;;;16.30
9119;BMP180;4594;50.994;7.126;2022-09-17T05:36:26;100398.00;;;16.30
9119;BMP180;4594;50.994;7.126;2022-09-17T05:38:52;100411.00;;;16.20
9119;BMP180;4594;50.994;7.126;2022-09-17T05:41:17;100407.00;;;16.20
9119;BMP180;4594;50.994;7.126;2022-09-17T05:43:43;100404.00;;;16.20
9119;BMP180;4594;50.994;7.126;2022-09-17T05:46:09;100425.00;;;16.20
9119;BMP180;4594;50.994;7.126;2022-09-17T05:48:35;100432.00;;;16.20
9119;BMP180;4594;50.994;7.126;2022-09-17T05:51:01;100409.00;;;16.10
9119;BMP180;4594;50.994;7.126;2022-09-17T05:53:27;100411.00;;;16.20
9119;BMP180;4594;50.994;7.126;2022-09-17T05:55:57;100424.00;;;16.20
9119;BMP180;4594;50.994;7.126;2022-09-17T05:58:23;100436.00;;;16.20
9119;BMP180;4594;50.994;7.126;2022-09-17T06:00:50;100442.00;;;16.20
9119;BMP180;4594;50.994;7.126;2022-09-17T06:03:18;100447.00;;;16.30
9119;BMP180;4594;50.994;7.126;2022-09-17T06:05:57;100454.00;;;16.30
9119;BMP180;4594;50.994;7.126;2022-09-17T06:08:24;100447.00;;;16.40
9119;BMP180;4594;50.994;7.126;2022-09-17T06:10:50;100445.00;;;16.40
9119;BMP180;4594;50.994;7.126;2022-09-17T06:13:17;100454.00;;;16.50
9119;BMP180;4594;50.994;7.126;2022-09-17T06:15:52;100456.00;;;16.60
9119;BMP180;4594;50.994;7.126;2022-09-17T06:18:19;100452.00;;;16.60
9119;BMP180;4594;50.994;7.126;2022-09-17T06:20:53;100454.00;;;16.70
9119;BMP180;4594;50.994;7.126;2022-09-17T06:23:20;100442.00;;;16.90
9119;BMP180;4594;50.994;7.126;2022-09-17T06:25:55;100455.00;;;17.10
9119;BMP180;4594;50.994;7.126;2022-09-17T06:28:21;100466.00;;;17.20
9119;BMP180;4594;50.994;7.126;2022-09-17T06:30:47;100447.00;;;17.30
9119;BMP180;4594;50.994;7.126;2022-09-17T06:33:14;100446.00;;;17.40
9119;BMP180;4594;50.994;7.126;2022-09-17T06:35:40;100453.00;;;17.50
9119;BMP180;4594;50.994;7.126;2022-09-17T06:38:06;100443.00;;;17.60
9119;BMP180;4594;50.994;7.126;2022-09-17T06:40:32;100467.00;;;17.80
9119;BMP180;4594;50.994;7.126;2022-09-17T06:42:59;100448.00;;;17.90
9119;BMP180;4594;50.994;7.126;2022-09-17T06:45:26;100453.00;;;18.00
9119;BMP180;4594;50.994;7.126;2022-09-17T06:47:51;100452.00;;;18.00
9119;BMP180;4594;50.994;7.126;2022-09-17T06:50:17;100464.00;;;18.10
9119;BMP180;4594;50.994;7.126;2022-09-17T06:52:51;100459.00;;;18.20
9119;BMP180;4594;50.994;7.126;2022-09-17T06:55:17;100465.00;;;18.30
9119;BMP180;4594;50.994;7.126;2022-09-17T06:57:43;100464.00;;;18.40
9119;BMP180;4594;50.994;7.126;2022-09-17T07:00:11;100483.00;;;18.40
9119;BMP180;4594;50.994;7.126;2022-09-17T07:02:37;100485.00;;;18.40
9119;BMP180;4594;50.994;7.126;2022-09-17T07:05:03;100471.00;;;18.40
9119;BMP180;4594;50.994;7.126;2022-09-17T07:07:29;100486.00;;;18.40
9119;BMP180;4594;50.994;7.126;2022-09-17T07:09:55;100478.00;;;18.40
9119;BMP180;4594;50.994;7.126;2022-09-17T07:12:21;100478.00;;;18.40
9119;BMP180;4594;50.994;7.126;2022-09-17T07:14:46;100482.00;;;18.30
9119;BMP180;4594;50.994;7.126;2022-09-17T07:17:13;100487.00;;;18.30
9119;BMP180;4594;50.994;7.126;2022-09-17T07:19:39;100473.00;;;18.20
9119;BMP180;4594;50.994;7.126;2022-09-17T07:22:05;100481.00;;;18.20
9119;BMP180;4594;50.994;7.126;2022-09-17T07:24:31;100488.00;;;18.20
9119;BMP180;4594;50.994;7.126;2022-09-17T07:26:57;100480.00;;;18.30
9119;BMP180;4594;50.994;7.126;2022-09-17T07:29:23;100488.00;;;18.40
9119;BMP180;4594;50.994;7.126;2022-09-17T07:31:54;100476.00;;;18.60
9119;BMP180;4594;50.994;7.126;2022-09-17T07:34:20;100477.00;;;19.00
9119;BMP180;4594;50.994;7.126;2022-09-17T07:36:46;100479.00;;;19.30
9119;BMP180;4594;50.994;7.126;2022-09-17T07:39:12;100484.00;;;19.40
9119;BMP180;4594;50.994;7.126;2022-09-17T07:41:39;100490.00;;;19.40
9119;BMP180;4594;50.994;7.126;2022-09-17T07:44:05;100490.00;;;19.50
9119;BMP180;4594;50.994;7.126;2022-09-17T07:46:34;100489.00;;;19.50
9119;BMP180;4594;50.994;7.126;2022-09-17T07:49:01;100479.00;;;19.60
9119;BMP180;4594;50.994;7.126;2022-09-17T07:51:27;100480.00;;;19.80
9119;BMP180;4594;50.994;7.126;2022-09-17T07:53:58;100476.00;;;20.00
9119;BMP180;4594;50.994;7.126;2022-09-17T07:56:26;100481.00;;;20.30
9119;BMP180;4594;50.994;7.126;2022-09-17T07:58:52;100493.00;;;20.60
9119;BMP180;4594;50.994;7.126;2022-09-17T08:01:18;100484.00;;;20.70
9119;BMP180;4594;50.994;7.126;2022-09-17T08:03:52;100472.00;;;20.80
9119;BMP180;4594;50.994;7.126;2022-09-17T08:06:22;100479.00;;;21.00
9119;BMP180;4594;50.994;7.126;2022-09-17T08:08:48;100479.00;;;21.20
9119;BMP180;4594;50.994;7.126;2022-09-17T08:11:18;100473.00;;;21.50
9119;BMP180;4594;50.994;7.126;2022-09-17T08:13:48;100476.00;;;21.90
9119;BMP180;4594;50.994;7.126;2022-09-17T08:16:15;100485.00;;;22.40
9119;BMP180;4594;50.994;7.126;2022-09-17T08:18:43;100482.00;;;23.00
9119;BMP180;4594;50.994;7.126;2022-09-17T08:21:12;100489.00;;;23.40
9119;BMP180;4594;50.994;7.126;2022-09-17T08:23:40;100464.00;;;23.90
9119;BMP180;4594;50.994;7.126;2022-09-17T08:26:11;100462.00;;;24.60
9119;BMP180;4594;50.994;7.126;2022-09-17T08:28:37;100466.00;;;25.50
9119;BMP180;4594;50.994;7.126;2022-09-17T08:31:06;100477.00;;;26.10
9119;BMP180;4594;50.994;7.126;2022-09-17T08:33:38;100474.00;;;26.40
9119;BMP180;4594;50.994;7.126;2022-09-17T08:36:07;100488.00;;;26.30
9119;BMP180;4594;50.994;7.126;2022-09-17T08:38:35;100477.00;;;26.20
9119;BMP180;4594;50.994;7.126;2022-09-17T08:44:10;100482.00;;;26.80
9119;BMP180;4594;50.994;7.126;2022-09-17T08:47:11;100484.00;;;26.70
9119;BMP180;4594;50.994;7.126;2022-09-17T08:49:53;100474.00;;;26.60
9119;BMP180;4594;50.994;7.126;2022-09-17T09:01:24;100483.00;;;27.00
9119;BMP180;4594;50.994;7.126;2022-09-17T09:06:49;100470.00;;;27.70
9119;BMP180;4594;50.994;7.126;2022-09-17T09:09:27;100476.00;;;28.30
9119;BMP180;4594;50.994;7.126;2022-09-17T09:12:04;100480.00;;;28.30
9119;BMP180;4594;50.994;7.126;2022-09-17T09:14:47;100486.00;;;28.00
9119;BMP180;4594;50.994;7.126;2022-09-17T09:17:17;100484.00;;;27.70
9119;BMP180;4594;50.994;7.126;2022-09-17T09:19:45;100496.00;;;27.30
9119;BMP180;4594;50.994;7.126;2022-09-17T09:22:39;100501.00;;;26.90
9119;BMP180;4594;50.994;7.126;2022-09-17T09:25:20;100485.00;;;26.50
9119;BMP180;4594;50.994;7.126;2022-09-17T09:33:40;100481.00;;;28.30
9119;BMP180;4594;50.994;7.126;2022-09-17T09:36:12;100494.00;;;28.30
9119;BMP180;4594;50.994;7.126;2022-09-17T09:38:58;100472.00;;;28.60
9119;BMP180;4594;50.994;7.126;2022-09-17T09:41:33;100475.00;;;29.40
9119;BMP180;4594;50.994;7.126;2022-09-17T09:44:08;100487.00;;;30.00
9119;BMP180;4594;50.994;7.126;2022-09-17T09:47:02;100486.00;;;30.10
9119;BMP180;4594;50.994;7.126;2022-09-17T09:55:28;100475.00;;;29.50
9119;BMP180;4594;50.994;7.126;2022-09-17T09:58:11;100474.00;;;29.80
9119;BMP180;4594;50.994;7.126;2022-09-17T10:00:42;100494.00;;;29.90
9119;BMP180;4594;50.994;7.126;2022-09-17T10:03:31;100478.00;;;29.90
9119;BMP180;4594;50.994;7.126;2022-09-17T10:06:08;100492.00;;;29.80
9119;BMP180;4594;50.994;7.126;2022-09-17T10:11:30;100472.00;;;29.60
9119;BMP180;4594;50.994;7.126;2022-09-17T10:14:21;100473.00;;;30.40
9119;BMP180;4594;50.994;7.126;2022-09-17T10:16:48;100466.00;;;31.30
9119;BMP180;4594;50.994;7.126;2022-09-17T10:19:20;100470.00;;;32.00
9119;BMP180;4594;50.994;7.126;2022-09-17T10:21:50;100479.00;;;31.80
9119;BMP180;4594;50.994;7.126;2022-09-17T10:24:29;100481.00;;;31.20
9119;BMP180;4594;50.994;7.126;2022-09-17T10:27:06;100487.00;;;30.60
9119;BMP180;4594;50.994;7.126;2022-09-17T10:29:51;100473.00;;;29.90
9119;BMP180;4594;50.994;7.126;2022-09-17T10:32:21;100469.00;;;29.50
9119;BMP180;4594;50.994;7.126;2022-09-17T10:34:58;100476.00;;;29.10
9119;BMP180;4594;50.994;7.126;2022-09-17T10:37:48;100481.00;;;28.80
9119;BMP180;4594;50.994;7.126;2022-09-17T10:40:26;100475.00;;;28.50
9119;BMP180;4594;50.994;7.126;2022-09-17T10:45:43;100466.00;;;27.80
9119;BMP180;4594;50.994;7.126;2022-09-17T10:48:20;100467.00;;;27.60
9119;BMP180;4594;50.994;7.126;2022-09-17T10:50:52;100472.00;;;27.30
9119;BMP180;4594;50.994;7.126;2022-09-17T10:53:20;100445.00;;;27.10
9119;BMP180;4594;50.994;7.126;2022-09-17T10:55:53;100459.00;;;26.80
9119;BMP180;4594;50.994;7.126;2022-09-17T10:59:19;100452.00;;;26.50
9119;BMP180;4594;50.994;7.126;2022-09-17T11:08:21;100432.00;;;26.20
9119;BMP180;4594;50.994;7.126;2022-09-17T11:11:37;100439.00;;;26.00
9119;BMP180;4594;50.994;7.126;2022-09-17T11:17:12;100443.00;;;25.80
9119;BMP180;4594;50.994;7.126;2022-09-17T11:20:02;100452.00;;;25.60
9119;BMP180;4594;50.994;7.126;2022-09-17T11:22:54;100438.00;;;25.50
9119;BMP180;4594;50.994;7.126;2022-09-17T11:25:32;100442.00;;;25.40
9119;BMP180;4594;50.994;7.126;2022-09-17T11:34:18;100442.00;;;24.90
9119;BMP180;4594;50.994;7.126;2022-09-17T11:36:57;100430.00;;;24.80
9119;BMP180;4594;50.994;7.126;2022-09-17T11:39:48;100437.00;;;24.80
9119;BMP180;4594;50.994;7.126;2022-09-17T11:42:21;100427.00;;;24.70
9119;BMP180;4594;50.994;7.126;2022-09-17T11:45:03;100429.00;;;24.60
9119;BMP180;4594;50.994;7.126;2022-09-17T11:47:36;100439.00;;;24.60
9119;BMP180;4594;50.994;7.126;2022-09-17T11:53:07;100412.00;;;24.40
9119;BMP180;4594;50.994;7.126;2022-09-17T11:55:58;100417.00;;;24.40
9119;BMP180;4594;50.994;7.126;2022-09-17T12:01:48;100444.00;;;24.00
9119;BMP180;4594;50.994;7.126;2022-09-17T12:04:45;100484.00;;;23.70
9119;BMP180;4594;50.994;7.126;2022-09-17T12:07:24;100494.00;;;23.40
9119;BMP180;4594;50.994;7.126;2022-09-17T12:10:27;100472.00;;;22.90
9119;BMP180;4594;50.994;7.126;2022-09-17T12:15:48;100473.00;;;22.40
9119;BMP180;4594;50.994;7.126;2022-09-17T12:18:45;100464.00;;;22.20
9119;BMP180;4594;50.994;7.126;2022-09-17T12:21:24;100455.00;;;22.00
9119;BMP180;4594;50.994;7.126;2022-09-17T12:27:05;100465.00;;;21.90
9119;BMP180;4594;50.994;7.126;2022-09-17T12:32:38;100479.00;;;21.80
9119;BMP180;4594;50.994;7.126;2022-09-17T12:42:05;100459.00;;;21.60
9119;BMP180;4594;50.994;7.126;2022-09-17T12:48:01;100449.00;;;21.60
9119;BMP180;4594;50.994;7.126;2022-09-17T12:59:41;100420.00;;;22.00
9119;BMP180;4594;50.994;7.126;2022-09-17T13:02:43;100428.00;;;22.10
9119;BMP180;4594;50.994;7.126;2022-09-17T13:12:00;100478.00;;;22.10
9119;BMP180;4594;50.994;7.126;2022-09-17T13:18:02;100479.00;;;21.60
9119;BMP180;4594;50.994;7.126;2022-09-17T13:20:54;100453.00;;;21.30
9119;BMP180;4594;50.994;7.126;2022-09-17T13:23:44;100440.00;;;21.00
9119;BMP180;4594;50.994;7.126;2022-09-17T13:26:13;100422.00;;;20.90
9119;BMP180;4594;50.994;7.126;2022-09-17T13:28:46;100448.00;;;20.80
9119;BMP180;4594;50.994;7.126;2022-09-17T13:31:21;100442.00;;;20.70
9119;BMP180;4594;50.994;7.126;2022-09-17T13:34:29;100427.00;;;20.40
9119;BMP180;4594;50.994;7.126;2022-09-17T13:37:01;100437.00;;;20.20
9119;BMP180;4594;50.994;7.126;2022-09-17T13:45:00;100439.00;;;19.90
9119;BMP180;4594;50.994;7.126;2022-09-17T13:47:56;100445.00;;;19.70
9119;BMP180;4594;50.994;7.126;2022-09-17T13:50:40;100448.00;;;19.60
9119;BMP180;4594;50.994;7.126;2022-09-17T13:53:17;100451.00;;;19.50
9119;BMP180;4594;50.994;7.126;2022-09-17T13:55:55;100453.00;;;19.40
9119;BMP180;4594;50.994;7.126;2022-09-17T14:01:11;100449.00;;;19.20
9119;BMP180;4594;50.994;7.126;2022-09-17T14:19:26;100444.00;;;18.80
9119;BMP180;4594;50.994;7.126;2022-09-17T14:24:34;100445.00;;;18.80
9119;BMP180;4594;50.994;7.126;2022-09-17T14:30:20;100440.00;;;18.70
9119;BMP180;4594;50.994;7.126;2022-09-17T14:33:01;100443.00;;;18.80
9119;BMP180;4594;50.994;7.126;2022-09-17T14:35:46;100419.00;;;18.90
9119;BMP180;4594;50.994;7.126;2022-09-17T14:38:28;100441.00;;;19.10
9119;BMP180;4594;50.994;7.126;2022-09-17T14:41:19;100421.00;;;19.20
9119;BMP180;4594;50.994;7.126;2022-09-17T14:44:01;100436.00;;;19.20
9119;BMP180;4594;50.994;7.126;2022-09-17T14:46:49;100476.00;;;19.30
9119;BMP180;4594;50.994;7.126;2022-09-17T14:49:46;100491.00;;;19.20
9119;BMP180;4594;50.994;7.126;2022-09-17T14:52:31;100479.00;;;19.20
9119;BMP180;4594;50.994;7.126;2022-09-17T14:55:29;100480.00;;;19.20
9119;BMP180;4594;50.994;7.126;2022-09-17T14:57:58;100472.00;;;19.20
9119;BMP180;4594;50.994;7.126;2022-09-17T15:00:37;100468.00;;;19.20
9119;BMP180;4594;50.994;7.126;2022-09-17T15:03:03;100465.00;;;19.20
9119;BMP180;4594;50.994;7.126;2022-09-17T15:05:34;100472.00;;;19.20
9119;BMP180;4594;50.994;7.126;2022-09-17T15:08:14;100476.00;;;19.10
9119;BMP180;4594;50.994;7.126;2022-09-17T15:13:34;100472.00;;;19.10
9119;BMP180;4594;50.994;7.126;2022-09-17T15:16:12;100461.00;;;19.10
9119;BMP180;4594;50.994;7.126;2022-09-17T15:18:52;100461.00;;;19.10
9119;BMP180;4594;50.994;7.126;2022-09-17T15:21:39;100458.00;;;19.10
9119;BMP180;4594;50.994;7.126;2022-09-17T15:24:41;100450.00;;;19.00
9119;BMP180;4594;50.994;7.126;2022-09-17T15:27:35;100453.00;;;18.90
9119;BMP180;4594;50.994;7.126;2022-09-17T15:30:17;100450.00;;;18.90
9119;BMP180;4594;50.994;7.126;2022-09-17T15:33:03;100451.00;;;18.80
9119;BMP180;4594;50.994;7.126;2022-09-17T15:35:34;100447.00;;;18.80
9119;BMP180;4594;50.994;7.126;2022-09-17T15:38:03;100455.00;;;18.80
9119;BMP180;4594;50.994;7.126;2022-09-17T15:40:43;100447.00;;;18.70
9119;BMP180;4594;50.994;7.126;2022-09-17T15:45:49;100448.00;;;18.70
9119;BMP180;4594;50.994;7.126;2022-09-17T15:51:01;100453.00;;;18.70
9119;BMP180;4594;50.994;7.126;2022-09-17T15:53:30;100444.00;;;18.70
9119;BMP180;4594;50.994;7.126;2022-09-17T15:56:02;100440.00;;;18.70
9119;BMP180;4594;50.994;7.126;2022-09-17T16:12:12;100452.00;;;18.90
9119;BMP180;4594;50.994;7.126;2022-09-17T16:14:43;100446.00;;;18.90
9119;BMP180;4594;50.994;7.126;2022-09-17T16:17:26;100451.00;;;18.90
9119;BMP180;4594;50.994;7.126;2022-09-17T16:19:54;100454.00;;;18.80
9119;BMP180;4594;50.994;7.126;2022-09-17T16:22:21;100466.00;;;18.80
9119;BMP180;4594;50.994;7.126;2022-09-17T16:24:46;100463.00;;;18.80
9119;BMP180;4594;50.994;7.126;2022-09-17T16:27:20;100461.00;;;18.80
9119;BMP180;4594;50.994;7.126;2022-09-17T16:29:48;100462.00;;;18.70
9119;BMP180;4594;50.994;7.126;2022-09-17T16:32:15;100475.00;;;18.70
9119;BMP180;4594;50.994;7.126;2022-09-17T16:34:41;100457.00;;;18.70
9119;BMP180;4594;50.994;7.126;2022-09-17T16:37:09;100470.00;;;18.70
9119;BMP180;4594;50.994;7.126;2022-09-17T16:39:36;100474.00;;;18.70
9119;BMP180;4594;50.994;7.126;2022-09-17T16:42:02;100466.00;;;18.70
9119;BMP180;4594;50.994;7.126;2022-09-17T16:44:28;100475.00;;;18.70
9119;BMP180;4594;50.994;7.126;2022-09-17T16:46:53;100466.00;;;18.70
9119;BMP180;4594;50.994;7.126;2022-09-17T16:49:19;100458.00;;;18.70
9119;BMP180;4594;50.994;7.126;2022-09-17T16:51:45;100483.00;;;18.70
9119;BMP180;4594;50.994;7.126;2022-09-17T16:54:10;100480.00;;;18.60
9119;BMP180;4594;50.994;7.126;2022-09-17T16:56:36;100480.00;;;18.60
9119;BMP180;4594;50.994;7.126;2022-09-17T16:59:02;100475.00;;;18.60
9119;BMP180;4594;50.994;7.126;2022-09-17T17:01:27;100476.00;;;18.60
9119;BMP180;4594;50.994;7.126;2022-09-17T17:03:53;100480.00;;;18.50
9119;BMP180;4594;50.994;7.126;2022-09-17T17:06:21;100495.00;;;18.50
9119;BMP180;4594;50.994;7.126;2022-09-17T17:08:47;100473.00;;;18.50
9119;BMP180;4594;50.994;7.126;2022-09-17T17:11:13;100466.00;;;18.50
9119;BMP180;4594;50.994;7.126;2022-09-17T17:13:41;100494.00;;;18.40
9119;BMP180;4594;50.994;7.126;2022-09-17T17:16:13;100486.00;;;18.40
9119;BMP180;4594;50.994;7.126;2022-09-17T17:18:42;100492.00;;;18.30
9119;BMP180;4594;50.994;7.126;2022-09-17T17:21:11;100497.00;;;18.20
9119;BMP180;4594;50.994;7.126;2022-09-17T17:23:37;100489.00;;;18.20
9119;BMP180;4594;50.994;7.126;2022-09-17T17:26:03;100479.00;;;18.10
9119;BMP180;4594;50.994;7.126;2022-09-17T17:28:35;100484.00;;;18.00
9119;BMP180;4594;50.994;7.126;2022-09-17T17:31:02;100486.00;;;17.90
9119;BMP180;4594;50.994;7.126;2022-09-17T17:33:28;100498.00;;;17.90
9119;BMP180;4594;50.994;7.126;2022-09-17T17:35:54;100483.00;;;17.80
9119;BMP180;4594;50.994;7.126;2022-09-17T17:38:20;100495.00;;;17.70
9119;BMP180;4594;50.994;7.126;2022-09-17T17:40:45;100489.00;;;17.60
9119;BMP180;4594;50.994;7.126;2022-09-17T17:43:11;100493.00;;;17.60
9119;BMP180;4594;50.994;7.126;2022-09-17T17:45:39;100508.00;;;17.50
9119;BMP180;4594;50.994;7.126;2022-09-17T17:48:05;100501.00;;;17.40
9119;BMP180;4594;50.994;7.126;2022-09-17T17:50:32;100494.00;;;17.40
9119;BMP180;4594;50.994;7.126;2022-09-17T17:52:57;100500.00;;;17.30
9119;BMP180;4594;50.994;7.126;2022-09-17T17:55:23;100495.00;;;17.20